sensor_id;sensor_type;location;lat;lon;timestamp;pressure;altitude;pressure_sealevel;temperature;humidity
68301;BME280;55146;47.468;18.806;2023-05-08T00:01:13;100457.19;;;12.24;70.58
68301;BME280;55146;47.468;18.806;2023-05-08T00:03:39;100458.84;;;12.20;70.92
68301;BME280;55146;47.468;18.806;2023-05-08T00:06:05;100461.88;;;12.13;70.98
68301;BME280;55146;47.468;18.806;2023-05-08T00:08:30;100459.09;;;11.98;71.43
68301;BME280;55146;47.468;18.806;2023-05-08T00:10:56;100456.59;;;11.86;71.68
68301;BME280;55146;47.468;18.806;2023-05-08T00:13:21;100458.00;;;11.84;71.83
68301;BME280;55146;47.468;18.806;2023-05-08T00:15:47;100457.97;;;11.73;72.05
68301;BME280;55146;47.468;18.806;2023-05-08T00:18:12;100464.00;;;11.65;72.19
68301;BME280;55146;47.468;18.806;2023-05-08T00:20:38;100464.25;;;11.59;72.22
68301;BME280;55146;47.468;18.806;2023-05-08T00:23:03;100459.28;;;11.51;73.23
68301;BME280;55146;47.468;18.806;2023-05-08T00:25:29;100467.53;;;11.51;73.50
68301;BME280;55146;47.468;18.806;2023-05-08T00:27:56;100470.81;;;11.43;73.69
68301;BME280;55146;47.468;18.806;2023-05-08T00:30:21;100467.22;;;11.37;73.63
68301;BME280;55146;47.468;18.806;2023-05-08T00:32:47;100472.72;;;11.32;73.93
68301;BME280;55146;47.468;18.806;2023-05-08T00:35:12;100476.31;;;11.38;74.12
68301;BME280;55146;47.468;18.806;2023-05-08T00:37:37;100470.81;;;11.43;74.22
68301;BME280;55146;47.468;18.806;2023-05-08T00:40:06;100473.00;;;11.35;74.35
68301;BME280;55146;47.468;18.806;2023-05-08T00:42:32;100476.81;;;11.29;74.60
68301;BME280;55146;47.468;18.806;2023-05-08T00:44:58;100485.34;;;11.23;74.65
68301;BME280;55146;47.468;18.806;2023-05-08T00:47:23;100483.94;;;11.15;74.64
68301;BME280;55146;47.468;18.806;2023-05-08T00:49:48;100481.19;;;11.15;74.84
68301;BME280;55146;47.468;18.806;2023-05-08T00:52:14;100477.87;;;11.13;74.93
68301;BME280;55146;47.468;18.806;2023-05-08T00:54:41;100479.50;;;11.09;75.05
68301;BME280;55146;47.468;18.806;2023-05-08T00:57:06;100487.22;;;11.12;75.06
68301;BME280;55146;47.468;18.806;2023-05-08T00:59:32;100492.13;;;11.05;74.79
68301;BME280;55146;47.468;18.806;2023-05-08T01:01:59;100485.78;;;11.00;74.95
68301;BME280;55146;47.468;18.806;2023-05-08T01:04:25;100494.56;;;10.91;75.65
68301;BME280;55146;47.468;18.806;2023-05-08T01:06:50;100499.84;;;10.98;75.51
68301;BME280;55146;47.468;18.806;2023-05-08T01:09:16;100500.63;;;10.99;75.12
68301;BME280;55146;47.468;18.806;2023-05-08T01:12:02;100497.63;;;11.00;75.17
68301;BME280;55146;47.468;18.806;2023-05-08T01:17:40;100507.78;;;10.94;75.10
68301;BME280;55146;47.468;18.806;2023-05-08T01:23:23;100508.53;;;10.80;75.17
68301;BME280;55146;47.468;18.806;2023-05-08T01:34:03;100522.16;;;10.60;75.89
68301;BME280;55146;47.468;18.806;2023-05-08T01:36:38;100528.16;;;10.57;75.97
68301;BME280;55146;47.468;18.806;2023-05-08T01:39:21;100525.37;;;10.51;76.16
68301;BME280;55146;47.468;18.806;2023-05-08T01:42:04;100525.84;;;10.43;76.20
68301;BME280;55146;47.468;18.806;2023-05-08T01:44:39;100518.66;;;10.37;76.77
68301;BME280;55146;47.468;18.806;2023-05-08T01:47:06;100520.03;;;10.35;76.92
68301;BME280;55146;47.468;18.806;2023-05-08T01:49:39;100525.78;;;10.33;76.93
68301;BME280;55146;47.468;18.806;2023-05-08T01:52:31;100526.91;;;10.37;76.86
68301;BME280;55146;47.468;18.806;2023-05-08T01:55:02;100529.13;;;10.35;77.08
68301;BME280;55146;47.468;18.806;2023-05-08T01:57:30;100539.28;;;10.35;77.06
68301;BME280;55146;47.468;18.806;2023-05-08T01:59:58;100534.59;;;10.35;77.40
68301;BME280;55146;47.468;18.806;2023-05-08T02:02:26;100537.09;;;10.37;77.15
68301;BME280;55146;47.468;18.806;2023-05-08T02:04:53;100542.91;;;10.40;76.97
68301;BME280;55146;47.468;18.806;2023-05-08T02:07:22;100536.81;;;10.38;77.59
68301;BME280;55146;47.468;18.806;2023-05-08T02:09:48;100544.81;;;10.40;77.50
68301;BME280;55146;47.468;18.806;2023-05-08T02:12:16;100545.06;;;10.38;77.61
68301;BME280;55146;47.468;18.806;2023-05-08T02:14:44;100539.53;;;10.33;77.63
68301;BME280;55146;47.468;18.806;2023-05-08T02:17:11;100547.50;;;10.30;77.95
68301;BME280;55146;47.468;18.806;2023-05-08T02:19:40;100543.91;;;10.29;78.17
68301;BME280;55146;47.468;18.806;2023-05-08T02:22:08;100538.44;;;10.34;78.37
68301;BME280;55146;47.468;18.806;2023-05-08T02:24:35;100547.53;;;10.35;78.48
68301;BME280;55146;47.468;18.806;2023-05-08T02:27:02;100545.28;;;10.32;78.46
68301;BME280;55146;47.468;18.806;2023-05-08T02:29:29;100542.25;;;10.28;78.55
68301;BME280;55146;47.468;18.806;2023-05-08T02:31:55;100552.69;;;10.31;78.43
68301;BME280;55146;47.468;18.806;2023-05-08T02:34:22;100542.81;;;10.30;78.42
68301;BME280;55146;47.468;18.806;2023-05-08T02:36:52;100546.63;;;10.24;78.39
68301;BME280;55146;47.468;18.806;2023-05-08T02:39:20;100552.03;;;10.19;78.37
68301;BME280;55146;47.468;18.806;2023-05-08T02:41:48;100549.56;;;10.18;78.29
68301;BME280;55146;47.468;18.806;2023-05-08T02:44:14;100547.91;;;10.17;78.14
68301;BME280;55146;47.468;18.806;2023-05-08T02:46:57;100538.03;;;10.21;78.45
68301;BME280;55146;47.468;18.806;2023-05-08T02:49:32;100547.12;;;10.21;78.36
68301;BME280;55146;47.468;18.806;2023-05-08T02:52:05;100556.19;;;10.22;78.09
68301;BME280;55146;47.468;18.806;2023-05-08T02:54:43;100557.53;;;10.19;78.12
68301;BME280;55146;47.468;18.806;2023-05-08T03:00:15;100558.91;;;10.17;78.78
68301;BME280;55146;47.468;18.806;2023-05-08T03:02:45;100556.59;;;10.08;78.96
68301;BME280;55146;47.468;18.806;2023-05-08T03:05:16;100558.75;;;10.06;79.05
68301;BME280;55146;47.468;18.806;2023-05-08T03:07:42;100565.41;;;10.10;79.28
68301;BME280;55146;47.468;18.806;2023-05-08T03:10:11;100559.13;;;10.15;79.52
68301;BME280;55146;47.468;18.806;2023-05-08T03:12:44;100561.03;;;10.14;79.54
68301;BME280;55146;47.468;18.806;2023-05-08T03:15:25;100565.47;;;10.15;79.44
68301;BME280;55146;47.468;18.806;2023-05-08T03:17:56;100565.72;;;10.14;79.54
68301;BME280;55146;47.468;18.806;2023-05-08T03:20:25;100565.41;;;10.10;80.00
68301;BME280;55146;47.468;18.806;2023-05-08T03:22:54;100558.50;;;10.08;80.04
68301;BME280;55146;47.468;18.806;2023-05-08T03:25:20;100563.72;;;10.04;79.93
68301;BME280;55146;47.468;18.806;2023-05-08T03:27:47;100566.13;;;10.01;79.95
68301;BME280;55146;47.468;18.806;2023-05-08T03:30:13;100561.41;;;9.96;79.92
68301;BME280;55146;47.468;18.806;2023-05-08T03:32:40;100561.94;;;9.93;79.87
68301;BME280;55146;47.468;18.806;2023-05-08T03:35:07;100562.97;;;9.87;80.13
68301;BME280;55146;47.468;18.806;2023-05-08T03:37:33;100569.84;;;9.90;80.25
68301;BME280;55146;47.468;18.806;2023-05-08T03:39:59;100571.78;;;9.89;79.85
68301;BME280;55146;47.468;18.806;2023-05-08T03:42:25;100566.88;;;9.91;79.95
68301;BME280;55146;47.468;18.806;2023-05-08T03:44:52;100570.09;;;9.88;80.04
68301;BME280;55146;47.468;18.806;2023-05-08T03:47:19;100567.69;;;9.92;80.17
68301;BME280;55146;47.468;18.806;2023-05-08T03:49:45;100569.28;;;9.88;80.29
68301;BME280;55146;47.468;18.806;2023-05-08T03:52:12;100565.72;;;9.87;80.56
68301;BME280;55146;47.468;18.806;2023-05-08T03:54:37;100568.19;;;9.89;80.55
68301;BME280;55146;47.468;18.806;2023-05-08T03:57:03;100568.19;;;9.89;80.89
68301;BME280;55146;47.468;18.806;2023-05-08T04:05:10;100582.22;;;9.87;81.69
68301;BME280;55146;47.468;18.806;2023-05-08T04:07:46;100589.19;;;9.73;80.79
68301;BME280;55146;47.468;18.806;2023-05-08T04:10:32;100592.38;;;9.65;80.87
68301;BME280;55146;47.468;18.806;2023-05-08T04:13:08;100588.94;;;9.74;80.85
68301;BME280;55146;47.468;18.806;2023-05-08T04:15:43;100598.06;;;9.80;81.00
68301;BME280;55146;47.468;18.806;2023-05-08T04:18:15;100594.09;;;9.93;80.95
68301;BME280;55146;47.468;18.806;2023-05-08T04:20:42;100592.03;;;10.05;81.06
68301;BME280;55146;47.468;18.806;2023-05-08T04:23:13;100598.69;;;10.14;81.92
68301;BME280;55146;47.468;18.806;2023-05-08T04:25:39;100600.44;;;10.20;81.88
68301;BME280;55146;47.468;18.806;2023-05-08T04:28:07;100599.41;;;10.26;81.64
68301;BME280;55146;47.468;18.806;2023-05-08T04:30:33;100598.94;;;10.34;81.90
68301;BME280;55146;47.468;18.806;2023-05-08T04:33:01;100606.97;;;10.41;81.97
68301;BME280;55146;47.468;18.806;2023-05-08T04:35:28;100609.72;;;10.41;81.69
68301;BME280;55146;47.468;18.806;2023-05-08T04:37:54;100611.44;;;10.47;82.01
68301;BME280;55146;47.468;18.806;2023-05-08T04:40:19;100619.47;;;10.53;81.69
68301;BME280;55146;47.468;18.806;2023-05-08T04:42:45;100609.34;;;10.59;81.66
68301;BME280;55146;47.468;18.806;2023-05-08T04:45:12;100618.75;;;10.68;81.97
68301;BME280;55146;47.468;18.806;2023-05-08T04:47:37;100624.59;;;10.72;82.17
68301;BME280;55146;47.468;18.806;2023-05-08T04:50:03;100626.81;;;10.75;82.04
68301;BME280;55146;47.468;18.806;2023-05-08T04:52:29;100630.16;;;10.82;82.44
68301;BME280;55146;47.468;18.806;2023-05-08T04:54:54;100631.31;;;10.86;82.90
68301;BME280;55146;47.468;18.806;2023-05-08T04:57:20;100630.28;;;10.92;82.41
68301;BME280;55146;47.468;18.806;2023-05-08T04:59:45;100638.56;;;10.97;81.69
68301;BME280;55146;47.468;18.806;2023-05-08T05:02:10;100641.03;;;10.99;81.03
68301;BME280;55146;47.468;18.806;2023-05-08T05:04:35;100635.53;;;10.99;79.61
68301;BME280;55146;47.468;18.806;2023-05-08T05:07:02;100638.81;;;10.95;79.77
68301;BME280;55146;47.468;18.806;2023-05-08T05:09:27;100644.34;;;11.01;79.93
68301;BME280;55146;47.468;18.806;2023-05-08T05:11:53;100647.44;;;11.04;80.39
68301;BME280;55146;47.468;18.806;2023-05-08T05:14:18;100644.97;;;11.08;80.47
68301;BME280;55146;47.468;18.806;2023-05-08T05:16:44;100645.56;;;11.15;80.79
68301;BME280;55146;47.468;18.806;2023-05-08T05:19:09;100650.00;;;11.21;80.83
68301;BME280;55146;47.468;18.806;2023-05-08T05:21:34;100649.22;;;11.25;80.54
68301;BME280;55146;47.468;18.806;2023-05-08T05:24:02;100649.25;;;11.30;80.35
68301;BME280;55146;47.468;18.806;2023-05-08T05:26:28;100652.31;;;11.34;80.31
68301;BME280;55146;47.468;18.806;2023-05-08T05:28:53;100650.94;;;11.36;79.90
68301;BME280;55146;47.468;18.806;2023-05-08T05:31:18;100654.53;;;11.37;79.67
68301;BME280;55146;47.468;18.806;2023-05-08T05:33:44;100656.19;;;11.38;79.41
68301;BME280;55146;47.468;18.806;2023-05-08T05:36:10;100657.00;;;11.39;79.27
68301;BME280;55146;47.468;18.806;2023-05-08T05:38:36;100653.47;;;11.43;79.46
68301;BME280;55146;47.468;18.806;2023-05-08T05:41:01;100656.22;;;11.48;79.51
68301;BME280;55146;47.468;18.806;2023-05-08T05:43:26;100653.53;;;11.53;79.66
68301;BME280;55146;47.468;18.806;2023-05-08T05:45:52;100653.81;;;11.57;79.60
68301;BME280;55146;47.468;18.806;2023-05-08T05:48:20;100657.16;;;11.59;78.99
68301;BME280;55146;47.468;18.806;2023-05-08T05:50:45;100665.94;;;11.61;78.62
68301;BME280;55146;47.468;18.806;2023-05-08T05:53:10;100669.53;;;11.61;78.47
68301;BME280;55146;47.468;18.806;2023-05-08T05:55:37;100671.22;;;11.67;79.37
68301;BME280;55146;47.468;18.806;2023-05-08T05:58:02;100672.94;;;11.73;79.16
68301;BME280;55146;47.468;18.806;2023-05-08T06:00:28;100663.06;;;11.78;78.20
68301;BME280;55146;47.468;18.806;2023-05-08T06:02:55;100669.12;;;11.80;78.46
68301;BME280;55146;47.468;18.806;2023-05-08T06:05:21;100670.25;;;11.84;79.03
68301;BME280;55146;47.468;18.806;2023-05-08T06:07:47;100677.72;;;11.88;79.40
68301;BME280;55146;47.468;18.806;2023-05-08T06:10:12;100672.47;;;11.92;78.83
68301;BME280;55146;47.468;18.806;2023-05-08T06:12:38;100669.47;;;11.98;78.48
68301;BME280;55146;47.468;18.806;2023-05-08T06:15:04;100673.06;;;11.99;77.41
68301;BME280;55146;47.468;18.806;2023-05-08T06:17:29;100669.22;;;12.05;77.58
68301;BME280;55146;47.468;18.806;2023-05-08T06:19:56;100665.94;;;12.08;78.36
68301;BME280;55146;47.468;18.806;2023-05-08T06:22:22;100677.81;;;12.13;77.51
68301;BME280;55146;47.468;18.806;2023-05-08T06:24:49;100675.34;;;12.17;77.02
68301;BME280;55146;47.468;18.806;2023-05-08T06:27:18;100676.47;;;12.21;76.34
68301;BME280;55146;47.468;18.806;2023-05-08T06:29:43;100673.16;;;12.24;74.95
68301;BME280;55146;47.468;18.806;2023-05-08T06:32:09;100675.91;;;12.19;75.91
68301;BME280;55146;47.468;18.806;2023-05-08T06:34:34;100679.25;;;12.26;76.07
68301;BME280;55146;47.468;18.806;2023-05-08T06:36:59;100676.75;;;12.30;76.27
68301;BME280;55146;47.468;18.806;2023-05-08T06:39:25;100674.84;;;12.35;75.73
68301;BME280;55146;47.468;18.806;2023-05-08T06:41:50;100686.72;;;12.41;75.65
68301;BME280;55146;47.468;18.806;2023-05-08T06:44:15;100678.75;;;12.49;75.74
68301;BME280;55146;47.468;18.806;2023-05-08T06:46:41;100685.94;;;12.50;76.83
68301;BME280;55146;47.468;18.806;2023-05-08T06:49:06;100682.34;;;12.50;76.44
68301;BME280;55146;47.468;18.806;2023-05-08T06:51:31;100680.69;;;12.59;76.10
68301;BME280;55146;47.468;18.806;2023-05-08T06:53:59;100679.31;;;12.72;76.34
68301;BME280;55146;47.468;18.806;2023-05-08T06:56:25;100686.28;;;12.89;76.53
68301;BME280;55146;47.468;18.806;2023-05-08T06:58:50;100684.59;;;12.93;77.31
68301;BME280;55146;47.468;18.806;2023-05-08T07:01:16;100687.94;;;13.01;75.70
68301;BME280;55146;47.468;18.806;2023-05-08T07:03:41;100685.69;;;12.97;77.05
68301;BME280;55146;47.468;18.806;2023-05-08T07:06:07;100681.00;;;12.98;76.58
68301;BME280;55146;47.468;18.806;2023-05-08T07:08:36;100684.06;;;13.02;75.83
68301;BME280;55146;47.468;18.806;2023-05-08T07:11:02;100683.81;;;13.18;75.90
68301;BME280;55146;47.468;18.806;2023-05-08T07:13:27;100694.84;;;13.23;75.03
68301;BME280;55146;47.468;18.806;2023-05-08T07:15:53;100689.06;;;13.25;73.80
68301;BME280;55146;47.468;18.806;2023-05-08T07:18:19;100689.06;;;13.25;73.37
68301;BME280;55146;47.468;18.806;2023-05-08T07:20:45;100688.75;;;13.42;74.43
68301;BME280;55146;47.468;18.806;2023-05-08T07:23:10;100689.53;;;13.67;71.78
68301;BME280;55146;47.468;18.806;2023-05-08T07:25:35;100686.72;;;13.88;68.66
68301;BME280;55146;47.468;18.806;2023-05-08T07:28:01;100689.94;;;14.10;68.26
68301;BME280;55146;47.468;18.806;2023-05-08T07:30:26;100691.47;;;14.36;68.72
68301;BME280;55146;47.468;18.806;2023-05-08T07:32:52;100688.06;;;14.60;68.00
68301;BME280;55146;47.468;18.806;2023-05-08T07:35:18;100688.72;;;14.85;67.17
68301;BME280;55146;47.468;18.806;2023-05-08T07:37:43;100685.81;;;15.63;62.56
68301;BME280;55146;47.468;18.806;2023-05-08T07:40:09;100685.69;;;16.21;64.50
68301;BME280;55146;47.468;18.806;2023-05-08T07:42:39;100689.06;;;16.79;56.73
68301;BME280;55146;47.468;18.806;2023-05-08T07:45:07;100678.34;;;17.24;58.81
68301;BME280;55146;47.468;18.806;2023-05-08T07:47:32;100684.53;;;17.67;54.64
68301;BME280;55146;47.468;18.806;2023-05-08T07:49:57;100676.50;;;17.79;55.41
68301;BME280;55146;47.468;18.806;2023-05-08T07:52:23;100672.62;;;17.94;51.04
68301;BME280;55146;47.468;18.806;2023-05-08T07:54:48;100678.69;;;18.09;52.89
68301;BME280;55146;47.468;18.806;2023-05-08T07:57:13;100681.16;;;17.97;50.90
68301;BME280;55146;47.468;18.806;2023-05-08T07:59:39;100680.13;;;17.93;51.71
68301;BME280;55146;47.468;18.806;2023-05-08T08:02:04;100681.56;;;17.91;50.08
68301;BME280;55146;47.468;18.806;2023-05-08T08:04:29;100677.97;;;17.76;49.59
68301;BME280;55146;47.468;18.806;2023-05-08T08:06:55;100678.88;;;17.86;50.66
68301;BME280;55146;47.468;18.806;2023-05-08T08:09:20;100683.22;;;17.92;52.06
68301;BME280;55146;47.468;18.806;2023-05-08T08:11:45;100681.28;;;18.06;54.26
68301;BME280;55146;47.468;18.806;2023-05-08T08:14:11;100678.47;;;18.19;50.99
68301;BME280;55146;47.468;18.806;2023-05-08T08:16:36;100676.03;;;18.54;48.60
68301;BME280;55146;47.468;18.806;2023-05-08T08:19:02;100674.09;;;18.90;48.20
68301;BME280;55146;47.468;18.806;2023-05-08T08:21:27;100676.00;;;19.26;48.98
68301;BME280;55146;47.468;18.806;2023-05-08T08:23:53;100679.34;;;19.59;48.73
68301;BME280;55146;47.468;18.806;2023-05-08T08:26:18;100673.06;;;19.84;43.51
68301;BME280;55146;47.468;18.806;2023-05-08T08:28:43;100668.06;;;20.03;44.70
68301;BME280;55146;47.468;18.806;2023-05-08T08:31:09;100675.84;;;20.24;44.09
68301;BME280;55146;47.468;18.806;2023-05-08T08:33:34;100670.63;;;20.39;40.41
68301;BME280;55146;47.468;18.806;2023-05-08T08:35:59;100667.72;;;20.53;44.84
68301;BME280;55146;47.468;18.806;2023-05-08T08:38:25;100662.44;;;20.69;44.38
68301;BME280;55146;47.468;18.806;2023-05-08T08:40:50;100669.38;;;20.88;43.05
68301;BME280;55146;47.468;18.806;2023-05-08T08:43:17;100657.34;;;21.05;45.21
68301;BME280;55146;47.468;18.806;2023-05-08T08:45:43;100663.78;;;21.23;42.93
68301;BME280;55146;47.468;18.806;2023-05-08T08:48:10;100659.31;;;21.39;44.64
68301;BME280;55146;47.468;18.806;2023-05-08T08:50:41;100663.00;;;21.60;42.56
68301;BME280;55146;47.468;18.806;2023-05-08T08:53:10;100665.97;;;21.64;43.68
68301;BME280;55146;47.468;18.806;2023-05-08T08:55:43;100660.00;;;21.74;43.44
68301;BME280;55146;47.468;18.806;2023-05-08T08:58:20;100669.53;;;21.82;41.07
68301;BME280;55146;47.468;18.806;2023-05-08T09:00:48;100665.41;;;21.88;41.93
68301;BME280;55146;47.468;18.806;2023-05-08T09:03:14;100659.34;;;21.77;42.68
68301;BME280;55146;47.468;18.806;2023-05-08T09:05:40;100662.50;;;21.67;40.86
68301;BME280;55146;47.468;18.806;2023-05-08T09:08:05;100658.63;;;21.89;37.71
68301;BME280;55146;47.468;18.806;2023-05-08T09:10:34;100660.63;;;21.88;38.58
68301;BME280;55146;47.468;18.806;2023-05-08T09:13:00;100652.72;;;21.90;39.97
68301;BME280;55146;47.468;18.806;2023-05-08T09:15:25;100659.19;;;22.20;41.16
68301;BME280;55146;47.468;18.806;2023-05-08T09:17:51;100661.38;;;22.35;39.26
68301;BME280;55146;47.468;18.806;2023-05-08T09:20:16;100657.22;;;22.41;37.60
68301;BME280;55146;47.468;18.806;2023-05-08T09:22:42;100658.19;;;22.66;38.16
68301;BME280;55146;47.468;18.806;2023-05-08T09:25:08;100657.66;;;22.23;34.12
68301;BME280;55146;47.468;18.806;2023-05-08T09:27:33;100652.34;;;21.92;35.61
68301;BME280;55146;47.468;18.806;2023-05-08T09:30:07;100648.06;;;21.94;35.99
68301;BME280;55146;47.468;18.806;2023-05-08T09:32:34;100656.50;;;22.24;39.55
68301;BME280;55146;47.468;18.806;2023-05-08T09:35:00;100629.47;;;22.48;35.57
68301;BME280;55146;47.468;18.806;2023-05-08T09:37:26;100646.81;;;21.74;40.67
68301;BME280;55146;47.468;18.806;2023-05-08T09:39:53;100647.56;;;22.30;39.32
68301;BME280;55146;47.468;18.806;2023-05-08T09:42:18;100651.63;;;22.62;38.47
68301;BME280;55146;47.468;18.806;2023-05-08T09:44:49;100643.81;;;22.76;33.72
68301;BME280;55146;47.468;18.806;2023-05-08T09:47:22;100644.09;;;22.33;33.75
68301;BME280;55146;47.468;18.806;2023-05-08T09:52:22;100644.97;;;22.75;39.23
68301;BME280;55146;47.468;18.806;2023-05-08T09:54:59;100643.16;;;22.91;38.38
68301;BME280;55146;47.468;18.806;2023-05-08T09:57:25;100643.41;;;23.19;37.97
68301;BME280;55146;47.468;18.806;2023-05-08T09:59:51;100648.56;;;23.50;37.69
68301;BME280;55146;47.468;18.806;2023-05-08T10:02:24;100641.56;;;23.56;38.03
68301;BME280;55146;47.468;18.806;2023-05-08T10:04:50;100633.84;;;23.77;37.92
68301;BME280;55146;47.468;18.806;2023-05-08T10:07:26;100630.22;;;23.89;34.96
68301;BME280;55146;47.468;18.806;2023-05-08T10:10:02;100636.78;;;23.93;37.10
68301;BME280;55146;47.468;18.806;2023-05-08T10:12:29;100631.28;;;23.97;35.32
68301;BME280;55146;47.468;18.806;2023-05-08T10:14:55;100627.53;;;23.93;36.69
68301;BME280;55146;47.468;18.806;2023-05-08T10:17:49;100625.78;;;24.12;34.82
68301;BME280;55146;47.468;18.806;2023-05-08T10:20:18;100622.25;;;24.28;35.87
68301;BME280;55146;47.468;18.806;2023-05-08T10:22:46;100623.37;;;24.51;37.17
68301;BME280;55146;47.468;18.806;2023-05-08T10:25:16;100623.84;;;24.53;35.85
68301;BME280;55146;47.468;18.806;2023-05-08T10:30:25;100609.81;;;24.41;31.04
68301;BME280;55146;47.468;18.806;2023-05-08T10:32:52;100608.91;;;24.37;36.89
68301;BME280;55146;47.468;18.806;2023-05-08T10:35:22;100603.94;;;24.46;35.62
68301;BME280;55146;47.468;18.806;2023-05-08T10:37:48;100602.34;;;24.08;34.42
68301;BME280;55146;47.468;18.806;2023-05-08T10:40:14;100616.06;;;24.22;34.96
68301;BME280;55146;47.468;18.806;2023-05-08T10:42:45;100609.34;;;24.14;32.07
68301;BME280;55146;47.468;18.806;2023-05-08T10:45:11;100600.25;;;24.05;32.24
68301;BME280;55146;47.468;18.806;2023-05-08T10:50:21;100606.69;;;24.06;32.93
68301;BME280;55146;47.468;18.806;2023-05-08T10:55:37;100590.53;;;23.91;34.05
68301;BME280;55146;47.468;18.806;2023-05-08T10:58:10;100584.22;;;23.82;32.84
68301;BME280;55146;47.468;18.806;2023-05-08T11:03:27;100584.53;;;24.04;34.86
68301;BME280;55146;47.468;18.806;2023-05-08T11:05:53;100592.38;;;24.11;36.23
68301;BME280;55146;47.468;18.806;2023-05-08T11:08:24;100586.53;;;24.28;32.63
68301;BME280;55146;47.468;18.806;2023-05-08T11:11:04;100583.91;;;24.47;35.99
68301;BME280;55146;47.468;18.806;2023-05-08T11:13:43;100582.22;;;24.58;30.57
68301;BME280;55146;47.468;18.806;2023-05-08T11:16:11;100572.34;;;24.65;31.13
68301;BME280;55146;47.468;18.806;2023-05-08T11:18:36;100568.47;;;24.69;32.97
68301;BME280;55146;47.468;18.806;2023-05-08T11:21:04;100581.09;;;24.75;32.56
68301;BME280;55146;47.468;18.806;2023-05-08T11:23:36;100576.50;;;24.83;31.25
68301;BME280;55146;47.468;18.806;2023-05-08T11:26:03;100578.50;;;24.82;35.18
68301;BME280;55146;47.468;18.806;2023-05-08T11:31:04;100577.78;;;25.13;32.91
68301;BME280;55146;47.468;18.806;2023-05-08T11:33:34;100572.97;;;25.14;28.92
68301;BME280;55146;47.468;18.806;2023-05-08T11:36:14;100564.09;;;25.12;28.85
68301;BME280;55146;47.468;18.806;2023-05-08T11:38:41;100562.00;;;24.81;28.78
68301;BME280;55146;47.468;18.806;2023-05-08T11:41:23;100561.50;;;24.51;30.67
68301;BME280;55146;47.468;18.806;2023-05-08T11:46:51;100560.88;;;24.57;31.49
68301;BME280;55146;47.468;18.806;2023-05-08T11:49:18;100553.91;;;24.79;32.03
68301;BME280;55146;47.468;18.806;2023-05-08T11:51:47;100550.78;;;24.69;25.53
68301;BME280;55146;47.468;18.806;2023-05-08T11:54:18;100561.75;;;24.46;27.41
68301;BME280;55146;47.468;18.806;2023-05-08T11:56:50;100563.38;;;24.47;29.99
68301;BME280;55146;47.468;18.806;2023-05-08T11:59:16;100555.72;;;24.32;28.42
68301;BME280;55146;47.468;18.806;2023-05-08T12:01:42;100567.66;;;24.29;25.71
68301;BME280;55146;47.468;18.806;2023-05-08T12:04:09;100554.66;;;24.12;25.30
68301;BME280;55146;47.468;18.806;2023-05-08T12:06:36;100553.16;;;23.54;27.56
68301;BME280;55146;47.468;18.806;2023-05-08T12:09:08;100557.16;;;23.77;29.35
68301;BME280;55146;47.468;18.806;2023-05-08T12:11:34;100545.22;;;23.56;28.00
68301;BME280;55146;47.468;18.806;2023-05-08T12:13:59;100565.47;;;23.16;25.74
68301;BME280;55146;47.468;18.806;2023-05-08T12:16:25;100559.06;;;23.28;28.09
68301;BME280;55146;47.468;18.806;2023-05-08T12:18:52;100558.75;;;23.42;28.11
68301;BME280;55146;47.468;18.806;2023-05-08T12:21:18;100556.13;;;23.57;28.40
68301;BME280;55146;47.468;18.806;2023-05-08T12:23:44;100543.00;;;23.61;28.08
68301;BME280;55146;47.468;18.806;2023-05-08T12:26:09;100550.69;;;23.64;29.72
68301;BME280;55146;47.468;18.806;2023-05-08T12:28:37;100555.53;;;23.76;30.98
68301;BME280;55146;47.468;18.806;2023-05-08T12:31:03;100558.41;;;23.43;28.41
68301;BME280;55146;47.468;18.806;2023-05-08T12:33:29;100561.19;;;23.31;32.13
68301;BME280;55146;47.468;18.806;2023-05-08T12:35:55;100555.03;;;23.50;31.72
68301;BME280;55146;47.468;18.806;2023-05-08T12:38:25;100557.72;;;23.58;30.42
68301;BME280;55146;47.468;18.806;2023-05-08T12:40:51;100559.75;;;23.82;32.92
68301;BME280;55146;47.468;18.806;2023-05-08T12:43:20;100553.28;;;23.94;29.63
68301;BME280;55146;47.468;18.806;2023-05-08T12:45:54;100559.13;;;23.89;27.28
68301;BME280;55146;47.468;18.806;2023-05-08T12:48:20;100557.28;;;23.68;29.02
68301;BME280;55146;47.468;18.806;2023-05-08T12:50:45;100560.31;;;23.63;29.85
68301;BME280;55146;47.468;18.806;2023-05-08T12:53:18;100563.59;;;23.65;28.91
68301;BME280;55146;47.468;18.806;2023-05-08T12:55:52;100559.84;;;23.61;29.42
68301;BME280;55146;47.468;18.806;2023-05-08T12:58:21;100550.94;;;23.47;30.41
68301;BME280;55146;47.468;18.806;2023-05-08T13:00:49;100566.03;;;23.10;30.14
68301;BME280;55146;47.468;18.806;2023-05-08T13:03:22;100557.03;;;23.04;28.36
68301;BME280;55146;47.468;18.806;2023-05-08T13:05:52;100560.13;;;23.23;29.64
68301;BME280;55146;47.468;18.806;2023-05-08T13:08:17;100554.88;;;23.34;31.10
68301;BME280;55146;47.468;18.806;2023-05-08T13:10:46;100557.00;;;23.37;29.41
68301;BME280;55146;47.468;18.806;2023-05-08T13:13:13;100549.16;;;23.43;28.60
68301;BME280;55146;47.468;18.806;2023-05-08T13:15:39;100554.97;;;23.25;30.49
68301;BME280;55146;47.468;18.806;2023-05-08T13:18:04;100555.56;;;23.19;29.86
68301;BME280;55146;47.468;18.806;2023-05-08T13:20:31;100548.66;;;23.28;29.61
68301;BME280;55146;47.468;18.806;2023-05-08T13:22:57;100559.88;;;23.28;28.50
68301;BME280;55146;47.468;18.806;2023-05-08T13:25:22;100556.13;;;23.12;28.25